Time;durP1;ratioP1;P1;durP2;ratioP2;P2;SDS_P1;SDS_P2;PMS_P1;PMS_P2;Temp;Humidity;BMP_temperature;BMP_pressure;BME280_temperature;BME280_humidity;BME280_pressure;Samples;Min_cycle;Max_cycle;Signal;HPM_P1;HPM_P2
2021/12/16 00:01:48;;;;;;;18.80;5.90;;;23.60;75.50;;;;;;5112464;28;20043;-72
2021/12/16 04:20:38;;;;;;;23.15;4.72;;;21.50;78.30;;;;;;5105895;28;20113;-72
2021/12/16 04:23:06;;;;;;;18.75;4.57;;;21.40;77.80;;;;;;5100001;28;20572;-72
2021/12/16 04:25:37;;;;;;;16.33;3.47;;;21.30;77.40;;;;;;5093297;28;20047;-71
2021/12/16 04:28:10;;;;;;;15.18;3.30;;;21.40;76.80;;;;;;5091846;28;20095;-72
2021/12/16 04:30:37;;;;;;;16.75;3.88;;;21.30;75.70;;;;;;5092259;28;20465;-73
2021/12/16 04:33:04;;;;;;;20.67;4.25;;;21.40;76.00;;;;;;5074135;28;20040;-73
2021/12/16 04:35:32;;;;;;;20.15;3.92;;;21.40;75.60;;;;;;5091187;28;20047;-73
2021/12/16 04:37:59;;;;;;;15.63;3.30;;;21.40;75.90;;;;;;5073629;28;20032;-72
2021/12/16 04:40:29;;;;;;;18.35;3.80;;;21.50;74.80;;;;;;5091820;28;20489;-72
2021/12/16 04:43:00;;;;;;;22.25;4.05;;;21.40;74.50;;;;;;5073883;28;20036;-72
2021/12/16 04:45:28;;;;;;;21.40;3.65;;;21.40;74.80;;;;;;5073989;28;20024;-72
2021/12/16 04:47:57;;;;;;;26.63;3.60;;;21.40;74.90;;;;;;5073224;28;20024;-72
2021/12/16 04:50:25;;;;;;;12.40;3.38;;;21.40;74.40;;;;;;5091049;28;20394;-72
2021/12/16 04:52:52;;;;;;;21.35;3.42;;;21.40;74.00;;;;;;5091275;28;20054;-72
2021/12/16 04:55:23;;;;;;;18.85;3.47;;;21.40;73.80;;;;;;5091285;28;20040;-73
2021/12/16 04:57:50;;;;;;;17.67;3.55;;;21.40;73.90;;;;;;5073962;28;20024;-72
2021/12/16 05:00:24;;;;;;;17.88;3.50;;;21.50;73.50;;;;;;5091241;28;20326;-72
2021/12/16 05:02:51;;;;;;;17.35;3.13;;;21.40;72.50;;;;;;5073124;28;20031;-72
2021/12/16 05:05:18;;;;;;;25.50;4.97;;;21.30;73.20;;;;;;5091264;28;20036;-72
2021/12/16 05:07:47;;;;;;;10.32;3.28;;;21.30;73.30;;;;;;5090977;28;20482;-72
2021/12/16 05:10:15;;;;;;;19.33;3.83;;;21.40;72.80;;;;;;5057271;28;20043;-71
2021/12/16 05:12:50;;;;;;;21.00;4.15;;;21.40;72.80;;;;;;5098794;28;20036;-73
2021/12/16 05:15:19;;;;;;;17.55;3.80;;;21.30;73.20;;;;;;5090310;28;20048;-72
2021/12/16 05:17:50;;;;;;;13.50;2.70;;;21.40;72.80;;;;;;5111564;28;20047;-73
2021/12/16 05:20:25;;;;;;;17.17;3.67;;;21.30;72.40;;;;;;5092879;28;20039;-72
2021/12/16 05:28:24;;;;;;;16.52;4.13;;;21.50;72.40;;;;;;5095198;28;20081;-72
2021/12/16 05:30:51;;;;;;;17.00;3.63;;;21.40;72.20;;;;;;5092617;28;20073;-72
2021/12/16 05:33:18;;;;;;;16.23;3.70;;;21.40;72.90;;;;;;5093385;28;20110;-71
2021/12/16 05:35:46;;;;;;;14.70;3.33;;;21.40;72.80;;;;;;5110995;28;20504;-72
2021/12/16 05:38:15;;;;;;;20.67;3.30;;;21.40;72.50;;;;;;5110549;28;20068;-72
2021/12/16 05:40:43;;;;;;;15.82;3.13;;;21.40;72.40;;;;;;5092650;28;20048;-72
2021/12/16 05:43:12;;;;;;;17.23;3.47;;;21.40;72.70;;;;;;5093110;28;20032;-71
2021/12/16 05:45:39;;;;;;;13.35;3.38;;;21.40;72.60;;;;;;5110902;28;20036;-72
2021/12/16 05:48:08;;;;;;;17.52;3.20;;;21.40;72.30;;;;;;5111087;28;20032;-73
2021/12/16 05:50:37;;;;;;;16.30;3.28;;;21.50;72.50;;;;;;5108609;28;20461;-73
2021/12/16 05:53:05;;;;;;;16.65;2.92;;;21.40;71.90;;;;;;5106201;28;20057;-72
2021/12/16 05:55:32;;;;;;;15.88;4.28;;;21.40;72.80;;;;;;5091884;28;20047;-72
2021/12/16 05:58:04;;;;;;;12.60;3.08;;;21.50;72.20;;;;;;5110205;28;20032;-71
2021/12/16 06:00:33;;;;;;;17.50;3.20;;;21.40;73.00;;;;;;5104263;28;20393;-72
2021/12/16 06:03:01;;;;;;;16.67;2.97;;;21.40;72.60;;;;;;5084243;28;20114;-72
2021/12/16 06:05:28;;;;;;;17.20;2.92;;;21.40;72.20;;;;;;5110092;28;20040;-73
2021/12/16 06:07:55;;;;;;;16.02;3.33;;;21.40;72.40;;;;;;5110006;28;20019;-70
2021/12/16 06:13:08;;;;;;;13.85;2.53;;;21.30;72.30;;;;;;5108947;28;20039;-71
2021/12/16 06:29:16;;;;;;;15.38;2.75;;;21.30;72.00;;;;;;5093717;28;20504;-72
2021/12/16 06:31:44;;;;;;;17.60;3.45;;;21.20;71.80;;;;;;5109602;28;20061;-72
2021/12/16 06:34:11;;;;;;;14.40;3.13;;;21.20;71.60;;;;;;5075240;28;20023;-71
2021/12/16 06:36:38;;;;;;;16.65;3.45;;;21.20;72.20;;;;;;5091091;28;20043;-71
2021/12/16 06:39:05;;;;;;;8.10;2.45;;;21.20;72.20;;;;;;5107497;28;20035;-72
2021/12/16 06:41:37;;;;;;;17.02;3.22;;;21.20;72.60;;;;;;5086605;28;20104;-72
2021/12/16 06:44:11;;;;;;;12.88;2.95;;;21.20;72.90;;;;;;5113059;28;20036;-71
2021/12/16 06:46:40;;;;;;;14.85;2.55;;;21.10;73.10;;;;;;5082079;28;20051;-72
2021/12/16 06:49:10;;;;;;;12.93;2.85;;;21.10;73.10;;;;;;5113144;28;20059;-72
2021/12/16 06:51:49;;;;;;;14.90;2.85;;;21.10;73.30;;;;;;5110718;28;20162;-72
2021/12/16 06:54:40;;;;;;;13.15;3.25;;;21.10;73.60;;;;;;5106419;28;20136;-73
2021/12/16 06:57:21;;;;;;;13.27;2.80;;;21.20;73.10;;;;;;5093842;28;20390;-73
2021/12/16 06:59:54;;;;;;;10.80;2.97;;;21.10;73.10;;;;;;5110555;28;20096;-74
2021/12/16 07:03:28;;;;;;;8.25;2.50;;;21.10;73.20;;;;;;5110968;28;20051;-73
2021/12/16 07:05:19;;;;;;;13.45;2.58;;;21.10;72.20;;;;;;5096827;28;20074;-73
2021/12/16 07:07:47;;;;;;;11.50;2.60;;;21.00;72.70;;;;;;5096309;28;20089;-73
2021/12/16 07:10:14;;;;;;;12.18;2.85;;;21.00;72.00;;;;;;5110975;28;20031;-73
2021/12/16 10:18:21;;;;;;;9.52;2.13;;;20.70;71.60;;;;;;5107934;28;20424;-72
2021/12/16 10:20:57;;;;;;;11.23;2.90;;;20.70;71.70;;;;;;5114265;28;20094;-72
2021/12/16 10:23:30;;;;;;;13.05;2.20;;;20.60;71.60;;;;;;5096404;28;20039;-70
2021/12/16 10:26:07;;;;;;;9.32;2.30;;;20.70;71.40;;;;;;5114424;28;20474;-70
2021/12/16 10:28:37;;;;;;;12.60;2.45;;;20.70;70.70;;;;;;5113727;28;20049;-72
2021/12/16 10:31:06;;;;;;;4.90;2.13;;;20.70;70.10;;;;;;5114470;28;20097;-72
2021/12/16 10:33:54;;;;;;;8.60;2.55;;;20.60;70.40;;;;;;5095459;28;20031;-72
2021/12/16 10:36:26;;;;;;;10.65;2.60;;;20.70;70.50;;;;;;5112321;28;20044;-72
2021/12/16 10:38:53;;;;;;;7.40;2.72;;;20.70;70.30;;;;;;5114630;28;20501;-73
2021/12/16 10:41:33;;;;;;;10.77;3.13;;;20.70;69.60;;;;;;5117365;27;20078;-72
2021/12/16 10:44:07;;;;;;;;;;;20.70;70.10;;;;;;5120825;27;20039;-72
2021/12/16 10:46:38;;;;;;;13.48;2.80;;;20.70;69.70;;;;;;5115422;27;19995;-72
2021/12/16 10:49:07;;;;;;;14.70;2.70;;;20.80;70.10;;;;;;5094571;28;20085;-72
2021/12/16 10:51:48;;;;;;;13.75;3.30;;;20.80;69.60;;;;;;5096553;28;20457;-73
2021/12/16 10:54:15;;;;;;;;;;;20.70;69.60;;;;;;5096663;28;20656;-72
2021/12/16 10:56:47;;;;;;;6.35;2.20;;;20.70;67.70;;;;;;5113556;28;19916;-73
2021/12/16 10:59:23;;;;;;;7.95;2.00;;;20.70;67.50;;;;;;5096481;28;20119;-72
2021/12/16 11:02:03;;;;;;;8.63;2.92;;;20.70;67.10;;;;;;5095840;28;20036;-72
2021/12/16 11:04:41;;;;;;;9.40;2.72;;;20.70;67.40;;;;;;5113292;28;20476;-73
2021/12/16 11:07:13;;;;;;;10.63;2.40;;;20.80;67.50;;;;;;5114087;28;20092;-72
2021/12/16 11:09:47;;;;;;;10.13;2.95;;;20.80;67.40;;;;;;5113605;28;20051;-72
2021/12/16 11:12:22;;;;;;;10.68;2.33;;;20.80;66.40;;;;;;5095104;28;20038;-72
2021/12/16 11:14:55;;;;;;;8.68;2.08;;;20.80;66.20;;;;;;5095091;28;20044;-72
2021/12/16 11:17:24;;;;;;;9.13;2.05;;;20.80;66.10;;;;;;5096081;28;20046;-72
2021/12/16 11:20:01;;;;;;;9.63;2.00;;;20.80;66.20;;;;;;5113448;28;20466;-72
2021/12/16 11:22:35;;;;;;;7.65;2.20;;;20.80;65.30;;;;;;5074062;28;20038;-73
2021/12/16 11:25:26;;;;;;;10.48;2.70;;;20.80;65.90;;;;;;5096838;28;20032;-72
2021/12/16 11:27:54;;;;;;;;;;;20.80;65.80;;;;;;5114111;28;20054;-72
2021/12/16 11:30:43;;;;;;;9.70;2.40;;;20.80;65.30;;;;;;5113369;28;19908;-72
2021/12/16 11:33:22;;;;;;;9.93;2.03;;;20.80;65.50;;;;;;5098111;28;20036;-73
2021/12/16 11:35:52;;;;;;;10.93;2.90;;;20.80;66.10;;;;;;5112962;28;20382;-73
2021/12/16 11:38:24;;;;;;;13.95;2.53;;;20.90;66.80;;;;;;5095312;28;20107;-73
2021/12/16 11:41:13;;;;;;;10.20;2.50;;;20.90;66.80;;;;;;5113512;28;20639;-73
2021/12/16 11:43:42;;;;;;;10.45;2.97;;;20.90;67.30;;;;;;5113383;28;20065;-72
2021/12/16 11:46:23;;;;;;;11.63;2.72;;;20.90;68.10;;;;;;5094201;28;20063;-72
2021/12/16 11:48:51;;;;;;;14.35;2.00;;;20.90;68.00;;;;;;5112799;28;20433;-72
2021/12/16 11:51:31;;;;;;;11.73;2.40;;;20.90;68.10;;;;;;5094930;28;20032;-73
2021/12/16 11:54:01;;;;;;;13.20;2.50;;;20.80;68.00;;;;;;5096631;28;20035;-72
2021/12/16 11:56:39;;;;;;;14.07;3.10;;;20.80;67.80;;;;;;5112732;28;20131;-72
2021/12/16 11:59:06;;;;;;;8.15;2.38;;;20.80;67.60;;;;;;5112253;28;20481;-73
2021/12/16 12:01:34;;;;;;;10.63;2.60;;;20.80;67.40;;;;;;5094496;28;20040;-72
2021/12/16 12:04:03;;;;;;;12.35;2.33;;;20.80;68.40;;;;;;5078510;28;20559;-72
2021/12/16 12:06:31;;;;;;;8.18;1.83;;;20.80;68.00;;;;;;5112559;28;20031;-72
2021/12/16 12:08:59;;;;;;;8.15;1.95;;;20.80;66.90;;;;;;5112598;28;20027;-72
2021/12/16 12:11:29;;;;;;;8.52;2.22;;;20.70;66.40;;;;;;5094636;28;20055;-72
2021/12/16 12:14:05;;;;;;;9.88;2.65;;;20.70;66.40;;;;;;5111595;28;20062;-72
2021/12/16 12:16:35;;;;;;;9.52;2.55;;;20.70;66.80;;;;;;5093866;28;20038;-73
2021/12/16 12:19:08;;;;;;;8.25;2.00;;;20.70;66.70;;;;;;5112276;28;20073;-73
2021/12/16 12:21:43;;;;;;;9.13;2.50;;;20.70;67.30;;;;;;5112132;28;20436;-73
2021/12/16 12:24:14;;;;;;;8.07;2.08;;;20.70;67.70;;;;;;5091996;28;20032;-72
2021/12/16 12:26:52;;;;;;;11.57;2.40;;;20.80;67.70;;;;;;5080316;28;20035;-73
2021/12/16 12:29:30;;;;;;;12.07;2.60;;;20.80;67.40;;;;;;5094377;28;20042;-73
2021/12/16 12:32:03;;;;;;;17.00;3.03;;;20.80;67.40;;;;;;5095270;28;20053;-73
2021/12/16 12:34:31;;;;;;;18.25;3.60;;;20.80;68.90;;;;;;5112113;28;20042;-73
2021/12/16 12:37:01;;;;;;;21.33;3.60;;;20.80;70.60;;;;;;5110731;28;20062;-73
2021/12/16 12:39:36;;;;;;;11.88;2.88;;;20.80;70.60;;;;;;5093188;28;20371;-73
2021/12/16 12:42:04;;;;;;;12.82;2.47;;;20.70;72.00;;;;;;5111668;28;20036;-72
2021/12/16 12:44:31;;;;;;;19.10;3.88;;;20.60;75.20;;;;;;5111697;28;20055;-73
2021/12/16 12:47:01;;;;;;;14.13;2.80;;;20.50;76.90;;;;;;5094025;28;20073;-73
2021/12/16 12:49:29;;;;;;;12.45;3.17;;;20.30;78.00;;;;;;5112260;28;20046;-73
2021/12/16 12:52:18;;;;;;;14.65;2.67;;;20.20;78.50;;;;;;5094040;28;20054;-73
2021/12/16 12:54:57;;;;;;;12.40;2.80;;;20.10;78.90;;;;;;5111771;28;20036;-73
2021/12/16 12:57:28;;;;;;;16.33;2.85;;;20.20;79.60;;;;;;5095637;28;20028;-73
2021/12/16 12:59:55;;;;;;;14.50;2.72;;;20.10;79.50;;;;;;5111489;28;20063;-73
2021/12/16 17:23:15;;;;;;;10.60;2.95;;;19.70;79.30;;;;;;5088570;28;20051;-72
2021/12/16 17:25:42;;;;;;;15.52;3.30;;;19.70;79.30;;;;;;5091492;28;20189;-73
2021/12/16 17:28:09;;;;;;;15.43;2.97;;;19.70;79.80;;;;;;5090792;28;20138;-73
2021/12/16 17:30:39;;;;;;;14.60;3.17;;;19.70;80.00;;;;;;5056605;28;20461;-73
2021/12/16 17:33:06;;;;;;;13.68;2.72;;;19.70;80.20;;;;;;5073737;28;20028;-73
2021/12/16 17:35:42;;;;;;;12.80;3.22;;;19.80;80.50;;;;;;5093187;28;20044;-73
2021/12/16 17:38:21;;;;;;;13.75;4.05;;;19.80;80.70;;;;;;5092425;28;20110;-73
2021/12/16 17:41:03;;;;;;;18.77;3.38;;;19.70;80.60;;;;;;5074747;28;20036;-73
2021/12/16 17:43:35;;;;;;;18.60;3.42;;;19.70;80.70;;;;;;5093091;28;20046;-72
2021/12/16 17:46:11;;;;;;;14.15;3.00;;;19.70;80.80;;;;;;5076692;28;20505;-73
2021/12/16 17:48:41;;;;;;;20.23;4.10;;;19.70;80.60;;;;;;5111127;28;20047;-73
2021/12/16 17:51:16;;;;;;;14.00;3.72;;;19.70;81.00;;;;;;5075978;28;20024;-72
2021/12/16 17:53:48;;;;;;;18.13;3.55;;;19.70;81.10;;;;;;5109181;28;20412;-72
2021/12/16 17:56:15;;;;;;;16.48;3.38;;;19.70;81.10;;;;;;5067267;28;20028;-72
2021/12/16 17:58:44;;;;;;;18.13;3.92;;;19.70;81.20;;;;;;5105589;28;20032;-72
2021/12/16 18:01:29;;;;;;;14.93;3.25;;;19.70;81.00;;;;;;5106104;28;20028;-72
2021/12/16 18:04:03;;;;;;;17.25;3.35;;;19.70;80.90;;;;;;5104602;28;20036;-72
2021/12/16 18:06:35;;;;;;;25.20;4.18;;;19.70;80.90;;;;;;5090008;28;20118;-72
2021/12/16 18:09:15;;;;;;;18.58;3.65;;;19.70;81.30;;;;;;5090409;28;20039;-72
2021/12/16 18:11:49;;;;;;;17.80;3.35;;;19.70;81.10;;;;;;5097236;28;20032;-72
2021/12/16 18:14:23;;;;;;;13.57;2.95;;;19.70;80.90;;;;;;5102967;28;20493;-73
2021/12/16 18:16:55;;;;;;;17.92;3.75;;;19.70;81.00;;;;;;5075071;28;20048;-73
2021/12/16 18:19:25;;;;;;;15.00;3.30;;;19.70;81.10;;;;;;5110200;28;20077;-73
2021/12/16 19:33:55;;;;;;;16.65;3.20;;;19.70;79.60;;;;;;5080223;28;20862;-71
2021/12/16 19:36:23;;;;;;;8.95;2.67;;;19.70;79.50;;;;;;5113218;28;20086;-71
2021/12/16 19:38:50;;;;;;;15.23;3.33;;;19.70;79.40;;;;;;5112769;28;20032;-72
2021/12/16 19:41:20;;;;;;;13.43;3.25;;;19.70;79.80;;;;;;5095216;28;20046;-72
2021/12/16 19:43:47;;;;;;;15.30;3.30;;;19.70;79.80;;;;;;5112820;28;20027;-71
2021/12/16 19:46:16;;;;;;;16.70;3.40;;;19.80;79.40;;;;;;5112847;28;20424;-71
2021/12/16 19:48:43;;;;;;;13.07;3.20;;;19.80;79.90;;;;;;5095043;28;20031;-71
2021/12/16 19:51:13;;;;;;;15.10;3.47;;;19.80;79.70;;;;;;5112101;28;20389;-72
2021/12/16 19:53:40;;;;;;;12.15;3.28;;;19.80;79.60;;;;;;5112713;28;20035;-70
2021/12/16 19:56:08;;;;;;;18.55;4.50;;;19.80;79.60;;;;;;5112825;28;20046;-72
2021/12/16 19:58:35;;;;;;;12.55;3.00;;;19.80;79.70;;;;;;5112701;28;20500;-72
2021/12/16 20:01:06;;;;;;;14.70;3.25;;;19.80;79.70;;;;;;5077823;28;20089;-71
2021/12/16 20:03:34;;;;;;;;;;;19.80;79.80;;;;;;5112804;28;20057;-72
2021/12/16 20:06:03;;;;;;;16.00;3.78;;;19.80;79.50;;;;;;5112435;28;19912;-72
2021/12/16 20:08:34;;;;;;;13.13;3.10;;;19.80;79.40;;;;;;5112389;28;20019;-72
2021/12/16 20:11:01;;;;;;;10.00;2.97;;;19.80;79.60;;;;;;5112667;28;20023;-72
2021/12/16 20:13:30;;;;;;;18.90;3.92;;;19.80;79.50;;;;;;5094474;28;20028;-72
2021/12/16 20:16:06;;;;;;;19.65;4.53;;;19.80;79.40;;;;;;5112921;28;20031;-72
2021/12/16 20:18:33;;;;;;;13.75;3.13;;;19.80;79.50;;;;;;5094289;28;20042;-72
2021/12/16 20:21:11;;;;;;;16.98;3.22;;;19.80;79.70;;;;;;5112007;28;20036;-72
2021/12/16 20:23:39;;;;;;;20.23;7.40;;;19.80;79.70;;;;;;5111500;28;20572;-73
2021/12/16 20:26:10;;;;;;;18.77;4.72;;;19.70;79.00;;;;;;5112047;28;20046;-73
2021/12/16 20:28:52;;;;;;;18.63;3.95;;;19.70;79.40;;;;;;5112223;28;20078;-74
2021/12/16 20:31:43;;;;;;;20.98;3.60;;;19.70;79.80;;;;;;5111499;28;20481;-72
